Time;durP1;ratioP1;P1;durP2;ratioP2;P2;SDS_P1;SDS_P2;PMS_P1;PMS_P2;Temp;Humidity;BMP_temperature;BMP_pressure;BME280_temperature;BME280_humidity;BME280_pressure;Samples;Min_cycle;Max_cycle;Signal;HPM_P1;HPM_P2
2022/04/14 00:00:05;;;;;;;;;;;;;;;18.79;51.56;102042.34;5122024;27;20258;-80
2022/04/14 00:02:31;;;;;;;;;;;;;;;18.79;51.44;102038.84;5139150;27;19911;-79
2022/04/14 00:04:56;;;;;;;;;;;;;;;18.79;51.48;102037.13;5142880;27;19934;-80
2022/04/14 00:07:21;;;;;;;;;;;;;;;18.78;51.32;102038.00;5142824;27;19912;-80
2022/04/14 00:09:47;;;;;;;;;;;;;;;18.78;51.50;102037.13;5124895;27;19922;-80
2022/04/14 00:12:12;;;;;;;;;;;;;;;18.78;51.48;102039.72;5161067;27;20288;-80
2022/04/14 00:14:37;;;;;;;;;;;;;;;18.78;51.41;102037.13;5124666;27;20292;-77
2022/04/14 00:17:03;;;;;;;;;;;;;;;18.78;51.42;102039.72;5142302;27;20284;-79
2022/04/14 00:19:28;;;;;;;;;;;;;;;18.77;51.38;102037.94;5141831;27;20099;-80
2022/04/14 00:21:53;;;;;;;;;;;;;;;18.78;51.48;102039.72;5124618;27;19915;-80
2022/04/14 00:24:18;;;;;;;;;;;;;;;18.78;51.33;102045.81;5140953;27;19915;-80
2022/04/14 00:26:44;;;;;;;;;;;;;;;18.78;51.43;102043.19;5124299;27;19915;-80
2022/04/14 00:29:11;;;;;;;;;;;;;;;18.78;51.38;102042.34;5123417;27;19936;-80
2022/04/14 00:31:36;;;;;;;;;;;;;;;18.77;51.31;102041.44;5159329;27;19911;-79
2022/04/14 00:34:01;;;;;;;;;;;;;;;18.77;51.58;102041.44;5141413;27;19918;-80
2022/04/14 00:36:27;;;;;;;;;;;;;;;18.76;51.35;102044.03;5123325;27;20022;-79
2022/04/14 00:38:52;;;;;;;;;;;;;;;18.75;51.33;102043.16;5138650;27;19911;-79
2022/04/14 00:41:17;;;;;;;;;;;;;;;18.75;51.43;102050.09;5125051;27;19922;-79
2022/04/14 00:43:43;;;;;;;;;;;;;;;18.75;51.54;102044.88;5125383;27;19915;-78
2022/04/14 00:46:08;;;;;;;;;;;;;;;18.75;51.42;102042.28;5125361;27;19922;-79
2022/04/14 00:48:33;;;;;;;;;;;;;;;18.76;51.43;102049.25;5142507;27;19918;-79
2022/04/14 01:54:42;;;;;;;;;;;;;;;18.68;51.33;102067.44;6060622;23;19932;-89
2022/04/14 01:57:07;;;;;;;;;;;;;;;18.68;51.24;102060.53;4941034;29;19935;-89
2022/04/14 02:04:42;;;;;;;;;;;;;;;18.67;51.33;102077.00;5322622;23;20963;-78
2022/04/14 02:07:09;;;;;;;;;;;;;;;18.67;51.38;102074.41;4909670;29;19923;-78
2022/04/14 02:19:55;;;;;;;;;;;;;;;18.66;51.25;102079.59;5331741;23;19934;-84
2022/04/14 02:22:20;;;;;;;;;;;;;;;18.65;51.21;102086.56;4902593;29;19919;-85
2022/04/14 02:24:46;;;;;;;;;;;;;;;18.66;51.27;102090.94;4902040;29;19919;-85
2022/04/14 02:27:11;;;;;;;;;;;;;;;18.65;51.23;102088.31;4902222;29;19998;-84
2022/04/14 02:29:36;;;;;;;;;;;;;;;18.66;51.30;102079.59;4901974;29;20010;-84
2022/04/14 02:32:01;;;;;;;;;;;;;;;18.65;51.35;102081.34;4917906;29;19923;-84
2022/04/14 02:34:27;;;;;;;;;;;;;;;18.65;51.31;102086.56;4917633;29;19915;-85
2022/04/14 02:36:52;;;;;;;;;;;;;;;18.64;51.32;102086.53;4918940;29;19915;-81
2022/04/14 02:39:18;;;;;;;;;;;;;;;18.64;51.29;102084.84;4917688;29;20227;-85
2022/04/14 02:41:45;;;;;;;;;;;;;;;18.64;51.36;102082.22;4901698;29;20267;-79
2022/04/14 02:44:10;;;;;;;;;;;;;;;18.64;51.44;102078.72;4901798;29;19919;-80
2022/04/14 02:46:36;;;;;;;;;;;;;;;18.63;51.48;102085.69;4917480;29;19914;-80
2022/04/14 02:49:01;;;;;;;;;;;;;;;18.63;51.29;102084.81;4901590;29;19919;-79
2022/04/14 02:51:26;;;;;;;;;;;;;;;18.63;51.44;102083.06;4901473;29;19971;-81
2022/04/14 02:53:51;;;;;;;;;;;;;;;18.62;51.42;102072.66;4901533;29;20006;-79
2022/04/14 02:56:17;;;;;;;;;;;;;;;18.62;51.28;102081.34;4901764;29;19942;-79
2022/04/14 02:58:42;;;;;;;;;;;;;;;18.63;51.56;102083.06;4901453;29;19967;-78
2022/04/14 03:01:07;;;;;;;;;;;;;;;18.62;51.49;102080.47;4916807;29;19922;-79
2022/04/14 03:03:32;;;;;;;;;;;;;;;18.62;51.57;102080.47;4917372;29;19919;-80
2022/04/14 03:05:57;;;;;;;;;;;;;;;18.61;51.41;102084.78;4917396;29;19919;-79
2022/04/14 03:08:23;;;;;;;;;;;;;;;18.61;51.54;102091.75;4901260;29;19919;-80
2022/04/14 03:10:48;;;;;;;;;;;;;;;18.60;51.27;102080.47;4901239;29;19919;-79
2022/04/14 03:13:13;;;;;;;;;;;;;;;18.61;51.46;102086.53;4916893;29;20001;-79
2022/04/14 03:15:38;;;;;;;;;;;;;;;18.61;51.45;102073.50;4901167;29;20006;-79
2022/04/14 03:18:05;;;;;;;;;;;;;;;18.60;51.46;102076.97;4901257;29;19919;-79
2022/04/14 03:20:31;;;;;;;;;;;;;;;18.61;51.49;102076.09;4916857;29;19923;-79
2022/04/14 03:22:56;;;;;;;;;;;;;;;18.61;51.47;102076.09;4916880;29;19924;-79
2022/04/14 03:25:21;;;;;;;;;;;;;;;18.59;51.41;102080.44;4901458;29;19920;-79
2022/04/14 03:27:47;;;;;;;;;;;;;;;18.60;51.48;102082.19;4900998;29;20272;-80
2022/04/14 03:30:12;;;;;;;;;;;;;;;18.60;51.47;102076.97;4916721;29;19915;-79
2022/04/14 03:32:41;;;;;;;;;;;;;;;18.59;51.58;102076.09;4901020;29;20366;-81
2022/04/14 03:35:07;;;;;;;;;;;;;;;18.58;51.63;102082.19;4916875;29;20362;-80
2022/04/14 03:37:33;;;;;;;;;;;;;;;18.58;51.49;102086.53;4901093;29;20502;-80
2022/04/14 03:39:58;;;;;;;;;;;;;;;18.58;51.61;102081.31;4916703;29;20006;-78
2022/04/14 03:42:23;;;;;;;;;;;;;;;18.57;51.61;102083.03;4916767;29;19982;-79
2022/04/14 03:44:48;;;;;;;;;;;;;;;18.57;51.45;102079.56;4900848;29;19923;-79
2022/04/14 03:47:14;;;;;;;;;;;;;;;18.56;51.51;102078.69;4900905;29;19980;-79
2022/04/14 03:49:39;;;;;;;;;;;;;;;18.57;51.49;102087.38;4900965;29;20383;-79
2022/04/14 03:52:04;;;;;;;;;;;;;;;18.57;51.46;102080.41;4916446;29;20500;-79
2022/04/14 03:54:30;;;;;;;;;;;;;;;18.57;51.47;102079.56;4916667;29;20282;-80
2022/04/14 03:56:55;;;;;;;;;;;;;;;18.56;51.55;102085.66;4916392;29;20429;-78
2022/04/14 03:59:20;;;;;;;;;;;;;;;18.55;51.55;102084.75;4916740;29;19913;-79
2022/04/14 04:01:46;;;;;;;;;;;;;;;18.55;51.71;102086.50;4900870;29;19966;-80
2022/04/14 04:04:11;;;;;;;;;;;;;;;18.55;51.60;102081.28;4916649;29;20006;-79
2022/04/14 04:06:36;;;;;;;;;;;;;;;18.54;51.50;102090.84;4916319;29;19915;-80
2022/04/14 04:09:02;;;;;;;;;;;;;;;18.53;51.63;102089.13;4916565;29;19927;-81
2022/04/14 04:11:27;;;;;;;;;;;;;;;18.54;51.55;102084.75;4900595;29;20433;-79
2022/04/14 04:13:52;;;;;;;;;;;;;;;18.53;51.47;102081.28;4901822;29;20002;-78
2022/04/14 04:16:17;;;;;;;;;;;;;;;18.54;51.42;102076.94;4904480;29;19919;-79
2022/04/14 04:18:42;;;;;;;;;;;;;;;18.52;51.60;102076.91;4920084;29;19926;-79
2022/04/14 04:21:08;;;;;;;;;;;;;;;18.53;51.60;102077.78;4920085;29;19922;-79
2022/04/14 04:23:34;;;;;;;;;;;;;;;18.52;51.59;102074.31;4904359;29;19966;-79
2022/04/14 04:25:59;;;;;;;;;;;;;;;18.52;51.46;102078.66;4904083;29;19919;-78
2022/04/14 04:28:30;;;;;;;;;;;;;;;18.52;51.35;102087.34;4919918;29;19997;-78
2022/04/14 04:30:55;;;;;;;;;;;;;;;18.53;51.44;102088.22;4921309;29;19919;-80
2022/04/14 04:33:20;;;;;;;;;;;;;;;18.52;51.37;102095.16;4904211;29;19938;-79
2022/04/14 04:35:46;;;;;;;;;;;;;;;18.53;51.42;102101.25;4904173;29;19949;-79
2022/04/14 04:38:11;;;;;;;;;;;;;;;18.52;51.49;102096.91;4920038;29;19970;-80
2022/04/14 04:40:36;;;;;;;;;;;;;;;18.52;51.54;102104.72;4904082;29;19926;-81
2022/04/14 04:43:02;;;;;;;;;;;;;;;18.52;51.43;102105.59;4904211;29;19919;-79
2022/04/14 04:45:28;;;;;;;;;;;;;;;18.52;51.42;102100.38;4920203;29;20366;-80
2022/04/14 04:47:53;;;;;;;;;;;;;;;18.52;51.54;102104.72;4919921;29;19916;-80
2022/04/14 04:50:18;;;;;;;;;;;;;;;18.50;51.39;102102.97;4904216;29;19926;-79
2022/04/14 04:52:43;;;;;;;;;;;;;;;18.52;51.49;102099.53;4903845;29;20027;-78
2022/04/14 04:55:09;;;;;;;;;;;;;;;18.52;51.42;102102.13;4904148;29;20006;-79
2022/04/14 04:57:34;;;;;;;;;;;;;;;18.50;51.23;102110.78;4904097;29;20390;-78
2022/04/14 04:59:59;;;;;;;;;;;;;;;18.50;51.50;102110.78;4903956;29;19959;-80
2022/04/14 05:02:24;;;;;;;;;;;;;;;18.50;51.39;102112.53;4903701;29;19930;-79
2022/04/14 05:04:50;;;;;;;;;;;;;;;18.50;51.37;102118.59;4903511;29;20405;-78
2022/04/14 05:07:15;;;;;;;;;;;;;;;18.50;51.35;102123.81;4919432;29;20379;-78
2022/04/14 05:09:40;;;;;;;;;;;;;;;18.51;51.47;102122.13;4903653;29;19926;-79
2022/04/14 05:12:06;;;;;;;;;;;;;;;18.50;51.31;102121.22;4903857;29;20418;-78
2022/04/14 05:14:31;;;;;;;;;;;;;;;18.54;51.27;102131.69;4903924;29;20031;-78
2022/04/14 05:16:56;;;;;;;;;;;;;;;18.45;51.58;102132.50;4903499;29;19930;-75
2022/04/14 05:19:21;;;;;;;;;;;;;;;18.35;51.78;102135.88;4919042;29;20259;-77
2022/04/14 05:21:48;;;;;;;;;;;;;;;18.32;51.67;102138.47;4919513;29;19922;-78
2022/04/14 05:24:13;;;;;;;;;;;;;;;18.26;52.01;102153.19;4903320;29;19923;-79
2022/04/14 05:26:39;;;;;;;;;;;;;;;18.28;51.81;102154.06;4905219;29;19919;-83
2022/04/14 05:29:04;;;;;;;;;;;;;;;18.24;51.87;102148.81;4904093;29;19923;-83
2022/04/14 05:31:29;;;;;;;;;;;;;;;18.32;51.54;102149.75;4920488;29;19971;-80
2022/04/14 05:33:55;;;;;;;;;;;;;;;18.39;51.44;102155.91;4920771;29;19919;-80
2022/04/14 05:36:21;;;;;;;;;;;;;;;18.43;51.20;102155.06;4908002;29;19919;-81
2022/04/14 05:38:46;;;;;;;;;;;;;;;18.44;51.31;102160.28;4909974;29;19919;-82
2022/04/14 05:41:12;;;;;;;;;;;;;;;18.47;51.07;102154.22;4925577;29;19996;-88
2022/04/14 05:43:38;;;;;;;;;;;;;;;18.35;51.33;102155.00;4931909;29;19927;-78
2022/04/14 05:46:04;;;;;;;;;;;;;;;18.38;51.26;102148.91;4925915;29;19926;-82
2022/04/14 05:48:29;;;;;;;;;;;;;;;18.43;51.27;102160.28;4906518;29;19920;-78
2022/04/14 05:50:54;;;;;;;;;;;;;;;18.46;51.19;102160.28;4921655;29;20406;-79
2022/04/14 05:53:24;;;;;;;;;;;;;;;18.47;51.08;102157.69;4906365;29;19945;-80
2022/04/14 05:55:50;;;;;;;;;;;;;;;18.48;51.03;102161.16;4920434;29;19916;-79
2022/04/14 05:58:16;;;;;;;;;;;;;;;18.49;51.12;102165.53;4919979;29;19930;-80
2022/04/14 06:00:42;;;;;;;;;;;;;;;18.49;50.97;102171.63;4919478;29;19915;-79
2022/04/14 06:03:07;;;;;;;;;;;;;;;18.49;51.01;102176.84;4919283;29;20256;-80
2022/04/14 06:05:32;;;;;;;;;;;;;;;18.49;51.08;102182.06;4903422;29;19969;-81
2022/04/14 06:08:01;;;;;;;;;;;;;;;18.50;50.98;102175.97;4918811;29;19979;-80
2022/04/14 06:10:27;;;;;;;;;;;;;;;18.50;51.07;102175.97;4918125;29;19925;-80
2022/04/14 06:12:54;;;;;;;;;;;;;;;18.52;51.00;102180.31;4919492;29;20341;-79
2022/04/14 06:15:19;;;;;;;;;;;;;;;18.52;50.84;102175.13;4918194;29;20358;-80
2022/04/14 06:17:44;;;;;;;;;;;;;;;18.52;50.81;102175.97;4902565;29;19930;-79
2022/04/14 06:20:11;;;;;;;;;;;;;;;18.52;50.91;102181.19;4903263;29;19937;-81
2022/04/14 06:22:37;;;;;;;;;;;;;;;18.51;50.85;102179.47;4921463;29;20425;-91
2022/04/14 06:25:02;;;;;;;;;;;;;;;18.53;50.87;102179.44;4905722;29;19926;-90
2022/04/14 06:27:28;;;;;;;;;;;;;;;18.55;50.90;102190.75;4921004;29;20329;-88
2022/04/14 06:29:53;;;;;;;;;;;;;;;18.77;50.27;102187.47;4920654;29;19915;-86
2022/04/14 06:32:19;;;;;;;;;;;;;;;19.17;49.21;102192.09;4904188;29;19923;-89
2022/04/14 06:34:44;;;;;;;;;;;;;;;19.39;48.71;102186.09;4903629;29;19925;-85
2022/04/14 06:37:09;;;;;;;;;;;;;;;19.48;48.14;102180.91;4901328;29;19994;-75
2022/04/14 06:39:35;;;;;;;;;;;;;;;19.53;48.23;102189.66;4917778;29;20274;-76
2022/04/14 06:42:00;;;;;;;;;;;;;;;19.57;48.26;102189.66;4901874;29;19983;-76
2022/04/14 06:44:25;;;;;;;;;;;;;;;19.68;47.98;102188.81;4903206;29;19923;-77
2022/04/14 06:46:50;;;;;;;;;;;;;;;19.71;47.97;102183.66;4902356;29;19925;-76
2022/04/14 06:49:16;;;;;;;;;;;;;;;19.82;47.57;102188.03;4902414;29;19955;-77
2022/04/14 06:51:41;;;;;;;;;;;;;;;19.87;47.67;102192.38;4917879;29;19919;-76
2022/04/14 06:54:07;;;;;;;;;;;;;;;19.96;47.49;102182.84;4902513;29;19926;-76
2022/04/14 06:56:32;;;;;;;;;;;;;;;20.02;47.00;102185.47;4917831;29;19915;-76
2022/04/14 06:58:57;;;;;;;;;;;;;;;20.04;47.34;102184.59;4901779;29;20285;-78
2022/04/14 07:01:25;;;;;;;;;;;;;;;20.02;47.52;102188.94;4901726;29;19982;-76
2022/04/14 07:03:51;;;;;;;;;;;;;;;20.02;47.68;102188.06;4902158;29;19966;-78
2022/04/14 07:06:16;;;;;;;;;;;;;;;19.84;48.17;102186.31;4901705;29;20378;-78
2022/04/14 07:08:41;;;;;;;;;;;;;;;19.76;48.59;102188.88;4901275;29;19919;-77
2022/04/14 07:11:07;;;;;;;;;;;;;;;19.73;48.62;102189.75;4917261;29;19919;-75
2022/04/14 07:13:32;;;;;;;;;;;;;;;19.73;48.59;102192.38;4901300;29;19930;-76
2022/04/14 07:15:59;;;;;;;;;;;;;;;19.72;48.61;102185.38;4901285;29;19919;-75
2022/04/14 07:18:25;;;;;;;;;;;;;;;19.74;48.85;102195.84;4917048;29;19971;-77
2022/04/14 07:20:50;;;;;;;;;;;;;;;19.73;48.94;102183.66;4917447;29;20294;-74
2022/04/14 07:23:15;;;;;;;;;;;;;;;19.74;49.04;102174.94;4917407;29;19916;-75
2022/04/14 07:25:41;;;;;;;;;;;;;;;19.78;48.77;102186.28;4917198;29;19916;-76
2022/04/14 07:28:07;;;;;;;;;;;;;;;19.76;49.04;102180.19;4901477;29;20010;-76
2022/04/14 07:30:33;;;;;;;;;;;;;;;19.72;49.03;102187.13;4916946;29;19915;-78
2022/04/14 07:33:00;;;;;;;;;;;;;;;19.72;49.10;102190.59;4901047;29;19923;-75
2022/04/14 07:35:25;;;;;;;;;;;;;;;19.71;49.17;102195.84;4916598;29;19926;-79
2022/04/14 07:37:51;;;;;;;;;;;;;;;19.71;49.32;102195.84;4918932;29;19915;-86
2022/04/14 07:40:17;;;;;;;;;;;;;;;19.72;49.32;102197.56;4918809;29;19919;-86
2022/04/14 07:42:43;;;;;;;;;;;;;;;19.70;49.35;102194.94;4918315;29;20024;-87
2022/04/14 07:45:10;;;;;;;;;;;;;;;19.69;49.56;102193.22;4920064;29;19922;-87
2022/04/14 07:47:35;;;;;;;;;;;;;;;19.70;49.54;102199.31;4918912;29;19926;-88
2022/04/14 07:50:01;;;;;;;;;;;;;;;19.68;49.62;102194.03;4901343;29;20294;-75
2022/04/14 07:52:26;;;;;;;;;;;;;;;19.70;49.60;102196.69;4916445;29;19927;-76
2022/04/14 07:54:51;;;;;;;;;;;;;;;19.69;49.59;102197.53;4917636;29;20367;-77
2022/04/14 07:57:16;;;;;;;;;;;;;;;19.69;49.73;102193.22;4900851;29;19926;-75
2022/04/14 07:59:42;;;;;;;;;;;;;;;19.69;49.78;102202.78;4900675;29;20006;-77
2022/04/14 08:02:07;;;;;;;;;;;;;;;19.72;49.86;102200.19;4900762;29;19975;-77
2022/04/14 08:04:32;;;;;;;;;;;;;;;19.71;49.72;102196.72;4900691;29;19974;-78
2022/04/14 08:06:58;;;;;;;;;;;;;;;19.71;49.68;102201.94;4900534;29;19920;-76
2022/04/14 08:09:23;;;;;;;;;;;;;;;19.70;49.85;102202.78;4900663;29;20398;-77
2022/04/14 08:11:48;;;;;;;;;;;;;;;19.68;49.97;102199.25;4916493;29;19922;-78
2022/04/14 08:14:13;;;;;;;;;;;;;;;19.68;49.78;102196.66;4900604;29;19927;-86
2022/04/14 08:16:39;;;;;;;;;;;;;;;19.70;49.98;102204.53;4917569;29;20006;-78
2022/04/14 08:19:04;;;;;;;;;;;;;;;19.69;49.78;102201.06;4900322;29;19982;-76
2022/04/14 08:21:29;;;;;;;;;;;;;;;19.69;50.01;102202.78;4917033;29;19915;-86
2022/04/14 08:23:54;;;;;;;;;;;;;;;19.68;50.07;102209.72;4901790;29;19942;-89
2022/04/14 08:26:21;;;;;;;;;;;;;;;19.68;49.69;102201.00;4901733;29;19911;-87
2022/04/14 08:28:47;;;;;;;;;;;;;;;19.66;49.96;102203.63;4917746;29;19926;-87
2022/04/14 08:31:12;;;;;;;;;;;;;;;19.68;49.84;102188.81;4901882;29;19919;-87
2022/04/14 08:33:38;;;;;;;;;;;;;;;19.64;49.96;102189.69;4917826;29;19919;-87
2022/04/14 08:36:04;;;;;;;;;;;;;;;19.66;49.86;102189.69;4917524;29;20386;-88
2022/04/14 08:38:30;;;;;;;;;;;;;;;19.65;49.88;102186.19;4918038;29;19915;-88
2022/04/14 08:41:01;;;;;;;;;;;;;;;19.64;50.03;102179.25;4917721;29;19919;-86
2022/04/14 08:43:36;;;;;;;;;;;;;;;19.64;50.07;102179.25;4917897;29;19922;-86
2022/04/14 08:46:03;;;;;;;;;;;;;;;19.64;49.96;102184.47;4902200;29;19985;-87
2022/04/14 08:48:29;;;;;;;;;;;;;;;19.65;50.02;102187.94;4917917;29;19919;-87
2022/04/14 08:50:54;;;;;;;;;;;;;;;19.65;50.16;102191.44;4918457;29;20058;-88
2022/04/14 08:53:24;;;;;;;;;;;;;;;19.65;49.80;102187.94;4917435;29;19963;-88
2022/04/14 08:55:50;;;;;;;;;;;;;;;19.60;49.88;102190.56;4917743;29;19915;-87
2022/04/14 08:58:16;;;;;;;;;;;;;;;19.58;50.07;102194.91;4901661;29;19990;-88
2022/04/14 09:00:41;;;;;;;;;;;;;;;19.58;50.22;102200.13;4905477;29;19946;-88
2022/04/14 09:03:06;;;;;;;;;;;;;;;19.59;50.14;102198.38;4905586;29;19986;-89
2022/04/14 09:05:31;;;;;;;;;;;;;;;19.59;50.13;102204.47;4905225;29;19973;-89
2022/04/14 09:07:57;;;;;;;;;;;;;;;19.60;50.21;102206.22;4907413;29;19919;-88
2022/04/14 09:10:22;;;;;;;;;;;;;;;19.60;50.06;102214.06;4921673;29;20392;-87
2022/04/14 09:12:48;;;;;;;;;;;;;;;19.61;49.88;102212.31;4906468;29;19924;-88
2022/04/14 09:15:15;;;;;;;;;;;;;;;19.58;49.95;102218.41;4921750;29;19928;-87
2022/04/14 09:17:40;;;;;;;;;;;;;;;19.56;50.02;102224.47;4906251;29;19919;-86
2022/04/14 09:20:24;;;;;;;;;;;;;;;19.51;50.36;102233.16;4927698;29;20413;-87
2022/04/14 09:23:09;;;;;;;;;;;;;;;19.52;50.13;102234.91;4922236;29;19954;-87
2022/04/14 09:25:34;;;;;;;;;;;;;;;19.52;50.31;102249.69;4921637;29;19915;-87
2022/04/14 09:28:07;;;;;;;;;;;;;;;19.51;50.13;102245.31;4905266;29;19920;-88
2022/04/14 09:30:32;;;;;;;;;;;;;;;19.50;50.18;102240.97;4920793;29;20425;-88
2022/04/14 09:32:57;;;;;;;;;;;;;;;19.46;50.29;102242.69;4919847;29;20014;-78
2022/04/14 09:35:23;;;;;;;;;;;;;;;19.45;49.94;102246.19;4918829;29;19915;-78
2022/04/14 09:38:07;;;;;;;;;;;;;;;19.46;50.31;102254.88;4903796;29;19919;-83
2022/04/14 09:40:37;;;;;;;;;;;;;;;19.44;50.65;102260.09;4918820;29;19959;-81
2022/04/14 09:43:02;;;;;;;;;;;;;;;19.43;50.60;102247.03;4918800;29;19922;-75
2022/04/14 09:45:29;;;;;;;;;;;;;;;19.40;50.58;102252.22;4918803;29;20311;-80
2022/04/14 09:48:17;;;;;;;;;;;;;;;19.40;50.88;102260.06;4918652;29;20006;-80
2022/04/14 09:50:47;;;;;;;;;;;;;;;19.38;51.00;102254.84;4919415;29;19915;-88
2022/04/14 09:53:13;;;;;;;;;;;;;;;19.38;51.01;102257.47;4920047;29;19919;-87
2022/04/14 09:55:59;;;;;;;;;;;;;;;19.38;51.16;102257.47;4904565;29;20017;-87
2022/04/14 09:58:26;;;;;;;;;;;;;;;19.37;51.41;102267.88;4921770;29;19990;-87
2022/04/14 10:00:52;;;;;;;;;;;;;;;19.35;51.01;102269.63;4920177;29;19962;-90
2022/04/14 10:03:24;;;;;;;;;;;;;;;19.35;51.09;102264.41;4920806;29;19965;-89
2022/04/14 10:05:50;;;;;;;;;;;;;;;19.35;51.13;102259.19;4919911;29;19923;-85
2022/04/14 10:08:16;;;;;;;;;;;;;;;19.33;51.30;102254.81;4919650;29;19934;-88
2022/04/14 10:10:45;;;;;;;;;;;;;;;19.31;51.11;102256.56;4921263;29;20374;-89
2022/04/14 10:13:12;;;;;;;;;;;;;;;19.32;51.27;102260.91;4919350;29;20263;-82
2022/04/14 10:15:38;;;;;;;;;;;;;;;19.32;51.26;102260.91;4919387;29;19915;-87
2022/04/14 10:18:06;;;;;;;;;;;;;;;19.33;51.22;102261.78;4919752;29;19915;-85
2022/04/14 10:20:32;;;;;;;;;;;;;;;19.32;50.75;102266.13;4919700;29;20077;-86
2022/04/14 10:22:59;;;;;;;;;;;;;;;19.32;50.67;102265.25;4919659;29;20037;-77
2022/04/14 10:25:25;;;;;;;;;;;;;;;19.32;50.87;102273.09;4918046;29;19919;-76
2022/04/14 10:27:52;;;;;;;;;;;;;;;19.32;50.87;102265.25;4917947;29;19926;-76
2022/04/14 10:30:20;;;;;;;;;;;;;;;19.33;51.08;102267.00;4918025;29;19946;-77
2022/04/14 10:32:46;;;;;;;;;;;;;;;19.31;51.27;102267.00;4917980;29;19923;-75
2022/04/14 10:35:11;;;;;;;;;;;;;;;19.31;51.35;102268.72;4919875;29;20366;-87
2022/04/14 10:37:44;;;;;;;;;;;;;;;19.31;51.28;102266.09;4919606;29;19919;-89
2022/04/14 10:40:10;;;;;;;;;;;;;;;19.30;51.30;102269.59;4920310;29;19971;-88
2022/04/14 10:42:36;;;;;;;;;;;;;;;19.30;51.08;102266.97;4919479;29;19918;-86
2022/04/14 10:45:14;;;;;;;;;;;;;;;19.27;50.53;102251.28;4919315;29;19962;-86
2022/04/14 10:47:42;;;;;;;;;;;;;;;19.23;50.30;102255.63;4919057;29;19915;-89
2022/04/14 10:50:18;;;;;;;;;;;;;;;19.22;50.35;102255.63;4919172;29;19942;-87
2022/04/14 10:52:59;;;;;;;;;;;;;;;19.26;50.43;102262.59;4918923;29;19919;-87
2022/04/14 10:55:54;;;;;;;;;;;;;;;19.25;50.43;102268.66;4919033;29;19916;-86
2022/04/14 10:58:28;;;;;;;;;;;;;;;19.23;50.34;102270.44;4911454;29;19915;-87
2022/04/14 11:00:54;;;;;;;;;;;;;;;19.24;50.50;102272.16;4918690;29;20494;-86
2022/04/14 11:03:19;;;;;;;;;;;;;;;19.22;50.27;102272.13;4902849;29;19930;-87
2022/04/14 11:05:48;;;;;;;;;;;;;;;19.22;50.42;102269.53;4918751;29;19966;-88
2022/04/14 11:08:27;;;;;;;;;;;;;;;19.23;50.45;102270.44;4920094;29;19915;-86
2022/04/14 11:11:08;;;;;;;;;;;;;;;19.21;50.22;102272.16;4902844;29;19919;-87
2022/04/14 11:13:52;;;;;;;;;;;;;;;19.20;50.01;102273.88;4918351;29;19943;-87
2022/04/14 11:16:36;;;;;;;;;;;;;;;19.19;49.92;102269.53;4918824;29;19946;-88
2022/04/14 11:19:24;;;;;;;;;;;;;;;19.19;50.03;102263.44;4918063;29;19915;-84
2022/04/14 11:21:58;;;;;;;;;;;;;;;19.18;50.09;102267.75;4919671;29;20414;-86
2022/04/14 11:24:35;;;;;;;;;;;;;;;19.19;50.13;102263.44;4918547;29;20011;-86
2022/04/14 11:27:13;;;;;;;;;;;;;;;19.19;50.21;102259.09;4918563;29;19915;-87
2022/04/14 11:29:45;;;;;;;;;;;;;;;19.19;50.03;102263.44;4918986;29;19915;-85
2022/04/14 11:32:11;;;;;;;;;;;;;;;19.18;49.99;102272.97;4918279;29;19919;-87
2022/04/14 11:34:37;;;;;;;;;;;;;;;19.18;49.81;102272.97;4918645;29;19926;-86
2022/04/14 11:37:02;;;;;;;;;;;;;;;19.18;49.86;102278.19;4918394;29;19916;-89
2022/04/14 11:39:29;;;;;;;;;;;;;;;19.21;49.97;102279.97;4918066;29;20377;-85
2022/04/14 11:41:55;;;;;;;;;;;;;;;19.21;49.79;102282.59;4918661;29;19911;-87
2022/04/14 11:44:20;;;;;;;;;;;;;;;19.21;49.86;102287.81;4903362;29;19919;-85
2022/04/14 11:46:54;;;;;;;;;;;;;;;19.20;49.97;102286.91;4918515;29;19919;-87
2022/04/14 11:49:21;;;;;;;;;;;;;;;19.21;50.01;102293.91;4919004;29;20298;-86
2022/04/14 11:51:50;;;;;;;;;;;;;;;19.21;49.91;102298.25;4918133;29;19986;-87
2022/04/14 11:54:22;;;;;;;;;;;;;;;19.22;50.00;102295.63;4918369;29;20005;-88
2022/04/14 11:56:52;;;;;;;;;;;;;;;19.21;49.96;102298.25;4919157;29;20374;-87
2022/04/14 11:59:18;;;;;;;;;;;;;;;19.19;49.88;102292.16;4919018;29;19922;-86
2022/04/14 12:01:49;;;;;;;;;;;;;;;19.20;49.82;102286.91;4918162;29;19967;-87
2022/04/14 12:04:14;;;;;;;;;;;;;;;19.21;49.76;102293.03;4902417;29;19919;-87
2022/04/14 12:06:49;;;;;;;;;;;;;;;19.22;50.05;102298.25;4902641;29;19919;-86
2022/04/14 12:09:19;;;;;;;;;;;;;;;19.23;50.21;102306.97;4917654;29;19989;-87
2022/04/14 12:11:44;;;;;;;;;;;;;;;19.23;50.11;102306.97;4918663;29;19922;-86
2022/04/14 12:14:14;;;;;;;;;;;;;;;19.23;50.13;102306.97;4917585;29;20026;-86
2022/04/14 12:16:52;;;;;;;;;;;;;;;19.23;50.20;102309.56;4917304;29;19919;-88
2022/04/14 12:19:18;;;;;;;;;;;;;;;19.23;50.17;102317.41;4918580;29;19938;-87
2022/04/14 12:21:57;;;;;;;;;;;;;;;19.22;49.96;102307.81;4918181;29;19919;-87
2022/04/14 12:24:23;;;;;;;;;;;;;;;19.23;49.99;102304.34;4917701;29;19963;-87
2022/04/14 12:26:49;;;;;;;;;;;;;;;19.24;49.89;102308.69;4902679;29;19919;-88
2022/04/14 12:29:14;;;;;;;;;;;;;;;19.23;49.72;102302.63;4903297;29;19919;-87
2022/04/14 12:31:39;;;;;;;;;;;;;;;19.24;49.80;102309.56;4901919;29;20018;-88
2022/04/14 12:34:08;;;;;;;;;;;;;;;19.24;49.56;102313.91;4919685;29;19930;-87
2022/04/14 12:36:36;;;;;;;;;;;;;;;19.25;49.60;102315.66;4922047;29;19915;-87
2022/04/14 12:39:03;;;;;;;;;;;;;;;19.26;49.78;102306.97;4922521;29;19915;-89
2022/04/14 12:41:34;;;;;;;;;;;;;;;19.26;49.87;102309.59;4923860;29;20358;-89
2022/04/14 12:43:59;;;;;;;;;;;;;;;19.25;49.80;102313.03;4921652;29;19915;-87
2022/04/14 12:46:25;;;;;;;;;;;;;;;19.26;49.75;102314.81;4922781;29;19915;-87
2022/04/14 12:49:02;;;;;;;;;;;;;;;19.26;49.67;102322.63;4923615;29;20454;-87
2022/04/14 12:51:31;;;;;;;;;;;;;;;19.25;49.71;102319.16;4923328;29;20278;-88
2022/04/14 12:53:57;;;;;;;;;;;;;;;19.27;49.58;102319.16;4921247;29;19926;-87
2022/04/14 12:56:22;;;;;;;;;;;;;;;19.26;49.44;102323.50;4905618;29;19920;-88
2022/04/14 12:59:07;;;;;;;;;;;;;;;19.27;49.51;102320.03;4921190;29;19915;-88
2022/04/14 13:01:51;;;;;;;;;;;;;;;19.29;49.52;102317.41;4921476;29;19915;-89
2022/04/14 13:04:26;;;;;;;;;;;;;;;19.29;49.49;102315.72;4921110;29;20354;-76
2022/04/14 13:06:56;;;;;;;;;;;;;;;19.30;49.57;102324.41;4921895;29;19915;-77
2022/04/14 13:09:23;;;;;;;;;;;;;;;19.31;49.38;102332.25;4922543;29;19919;-87
2022/04/14 13:11:49;;;;;;;;;;;;;;;19.32;49.34;102336.59;4924138;29;19967;-87
2022/04/14 13:14:18;;;;;;;;;;;;;;;19.33;49.39;102327.03;4907416;29;19919;-89
2022/04/14 13:16:44;;;;;;;;;;;;;;;19.34;49.40;102315.75;4920850;29;19923;-90
2022/04/14 13:19:10;;;;;;;;;;;;;;;19.35;49.25;102330.53;4904756;29;19923;-88
2022/04/14 13:21:45;;;;;;;;;;;;;;;19.36;49.25;102320.94;4921435;29;20013;-88
2022/04/14 13:24:11;;;;;;;;;;;;;;;19.36;49.36;102327.06;4924718;29;20298;-86
2022/04/14 13:26:36;;;;;;;;;;;;;;;19.36;49.20;102314.00;4920543;29;19919;-83
2022/04/14 13:29:02;;;;;;;;;;;;;;;19.40;49.45;102322.72;4920882;29;19915;-85
2022/04/14 13:31:27;;;;;;;;;;;;;;;19.38;49.39;102316.59;4919836;29;19940;-83
2022/04/14 13:33:53;;;;;;;;;;;;;;;19.40;49.38;102325.31;4919499;29;19977;-86
2022/04/14 13:36:18;;;;;;;;;;;;;;;19.38;49.03;102322.72;4919498;29;19919;-85
2022/04/14 13:38:43;;;;;;;;;;;;;;;19.39;49.17;102319.25;4919770;29;20005;-84
2022/04/14 13:41:08;;;;;;;;;;;;;;;19.38;48.88;102322.72;4903569;29;19926;-84
2022/04/14 13:43:34;;;;;;;;;;;;;;;19.38;49.08;102320.13;4919771;29;19922;-85
2022/04/14 13:45:59;;;;;;;;;;;;;;;19.41;49.23;102319.25;4919570;29;20401;-86
2022/04/14 13:48:24;;;;;;;;;;;;;;;19.39;49.20;102316.63;4919012;29;19970;-74
2022/04/14 13:50:50;;;;;;;;;;;;;;;19.40;49.24;102317.50;4918915;29;20063;-75
2022/04/14 13:53:17;;;;;;;;;;;;;;;19.39;49.01;102323.59;4902931;29;19930;-76